createdAt,value
2022-08-08T00:01:07.976Z,46.47
2022-08-08T00:06:28.535Z,46.72
2022-08-08T00:12:09.654Z,46.75
2022-08-08T00:17:23.902Z,46.94
2022-08-08T00:22:40.468Z,47.21
2022-08-08T00:27:45.269Z,47.45
2022-08-08T00:33:02.201Z,47.79
2022-08-08T00:38:16.806Z,47.85
2022-08-08T00:43:59.204Z,48.19
2022-08-08T00:49:22.551Z,48.35
2022-08-08T00:54:47.943Z,48.49
2022-08-08T01:00:16.249Z,48.57
2022-08-08T01:05:42.423Z,48.90
2022-08-08T01:11:36.373Z,48.87
2022-08-08T01:17:53.933Z,49.00
2022-08-08T01:24:05.870Z,49.22
2022-08-08T01:29:18.057Z,49.66
2022-08-08T01:34:46.950Z,49.70
2022-08-08T01:40:14.696Z,49.70
2022-08-08T01:45:37.636Z,49.78
2022-08-08T01:50:57.177Z,49.96
2022-08-08T01:56:28.291Z,49.93
2022-08-08T02:02:04.971Z,50.16
2022-08-08T02:07:50.509Z,50.19
2022-08-08T02:13:53.862Z,50.40
2022-08-08T02:19:56.867Z,50.45
2022-08-08T02:25:00.007Z,50.98
2022-08-08T02:30:21.236Z,52.86
2022-08-08T02:36:04.188Z,52.81
2022-08-08T02:41:58.922Z,51.71
2022-08-08T02:47:25.046Z,50.39
2022-08-08T02:52:40.101Z,49.22
2022-08-08T02:58:09.260Z,48.63
2022-08-08T03:03:14.931Z,48.12
2022-08-08T03:09:17.396Z,47.54
2022-08-08T03:15:58.849Z,47.60
2022-08-08T03:20:13.628Z,47.47
2022-08-08T03:25:21.959Z,47.67
2022-08-08T03:30:37.939Z,48.13
2022-08-08T03:35:41.748Z,47.25
2022-08-08T03:40:52.109Z,46.58
2022-08-08T03:46:06.139Z,46.54
2022-08-08T03:51:14.188Z,46.92
2022-08-08T03:56:32.124Z,47.41
2022-08-08T04:02:12.553Z,47.85
2022-08-08T04:07:04.800Z,48.28
2022-08-08T04:12:11.802Z,48.62
2022-08-08T04:17:45.796Z,49.14
2022-08-08T04:22:44.960Z,49.29
2022-08-08T04:28:34.167Z,49.83
2022-08-08T04:33:18.041Z,50.21
2022-08-08T04:38:22.251Z,50.32
2022-08-08T04:43:31.252Z,50.66
2022-08-08T04:48:34.459Z,50.53
2022-08-08T04:54:27.654Z,50.57
2022-08-08T04:59:00.613Z,50.76
2022-08-08T05:04:09.077Z,50.69
2022-08-08T05:09:17.952Z,50.52
2022-08-08T05:14:22.941Z,50.62
2022-08-08T05:20:09.082Z,50.71
2022-08-08T05:24:56.126Z,50.93
2022-08-08T05:29:59.795Z,51.00
2022-08-08T05:35:10.249Z,51.12
2022-08-08T05:40:17.867Z,51.07
2022-08-08T05:45:31.339Z,51.25
2022-08-08T05:50:46.702Z,51.56
2022-08-08T05:56:08.340Z,51.97
2022-08-08T06:01:56.016Z,51.97
2022-08-08T06:06:41.618Z,52.18
2022-08-08T06:11:52.792Z,52.48
2022-08-08T06:17:03.250Z,52.79
2022-08-08T06:22:35.368Z,52.80
2022-08-08T06:27:53.090Z,53.11
2022-08-08T06:33:00.941Z,53.78
2022-08-08T06:38:09.239Z,54.29
2022-08-08T06:43:30.529Z,54.43
2022-08-08T06:48:38.958Z,55.03
2022-08-08T06:53:50.522Z,55.23
2022-08-08T06:58:59.701Z,55.62
2022-08-08T07:04:40.654Z,55.85
2022-08-08T07:09:59.249Z,56.08
2022-08-08T07:15:15.558Z,55.89
2022-08-08T07:20:45.980Z,56.12
2022-08-08T07:25:59.091Z,56.21
2022-08-08T07:31:05.636Z,56.88
2022-08-08T07:36:11.402Z,56.94
2022-08-08T07:41:24.837Z,56.24
2022-08-08T07:46:30.791Z,55.63
2022-08-08T07:51:44.932Z,55.41
2022-08-08T07:57:12.442Z,55.39
2022-08-08T08:02:33.267Z,55.12
2022-08-08T08:07:45.775Z,54.86
2022-08-08T08:12:58.737Z,54.39
2022-08-08T08:18:06.211Z,54.23
2022-08-08T08:23:18.422Z,53.62
2022-08-08T08:28:24.123Z,53.15
2022-08-08T08:33:29.615Z,52.67
2022-08-08T08:38:35.395Z,52.42
2022-08-08T08:43:46.362Z,52.11
2022-08-08T08:48:51.526Z,51.91
2022-08-08T08:54:00.849Z,51.66
2022-08-08T08:59:17.233Z,51.37
2022-08-08T09:04:37.943Z,51.04
2022-08-08T09:09:57.263Z,50.62
2022-08-08T09:15:02.970Z,50.35
2022-08-08T09:21:57.488Z,50.10
2022-08-08T09:25:57.808Z,49.85
2022-08-08T09:31:12.468Z,49.65
2022-08-08T09:36:22.667Z,49.38
2022-08-08T09:42:14.381Z,48.95
2022-08-08T09:48:02.407Z,48.24
2022-08-08T09:52:56.647Z,47.40
2022-08-08T09:58:07.008Z,46.78
2022-08-08T10:03:15.080Z,46.27
2022-08-08T10:08:22.912Z,45.93
2022-08-08T10:13:35.526Z,45.53
2022-08-08T10:18:39.766Z,45.11
2022-08-08T10:23:49.525Z,45.10
2022-08-08T10:29:23.382Z,44.85
2022-08-08T10:34:29.660Z,44.50
2022-08-08T10:39:54.398Z,44.24
2022-08-08T10:45:08.831Z,43.97
2022-08-08T10:50:15.434Z,43.78
2022-08-08T10:55:39.954Z,43.77
2022-08-08T11:00:52.718Z,43.24
2022-08-08T11:06:07.304Z,43.16
2022-08-08T11:11:32.528Z,43.04
2022-08-08T11:16:46.318Z,42.71
2022-08-08T11:21:55.484Z,42.71
2022-08-08T11:27:19.376Z,42.51
2022-08-08T11:32:29.120Z,42.08
2022-08-08T11:38:34.677Z,41.87
2022-08-08T11:42:58.350Z,41.75
2022-08-08T11:48:02.903Z,41.78
2022-08-08T11:53:09.733Z,41.49
2022-08-08T11:58:17.969Z,41.16
2022-08-08T12:03:34.216Z,41.03
2022-08-08T12:08:38.073Z,40.94
2022-08-08T12:14:03.017Z,40.81
2022-08-08T12:19:12.267Z,40.60
2022-08-08T12:24:28.350Z,40.39
2022-08-08T12:29:40.026Z,40.28
2022-08-08T12:35:04.246Z,40.49
2022-08-08T12:40:22.593Z,40.35
2022-08-08T12:45:58.772Z,40.14
2022-08-08T12:50:58.537Z,40.04
2022-08-08T12:56:18.334Z,39.91
2022-08-08T13:01:37.512Z,39.87
2022-08-08T13:07:01.268Z,39.93
2022-08-08T13:12:37.182Z,40.03
2022-08-08T13:18:10.107Z,40.08
2022-08-08T13:23:30.789Z,39.76
2022-08-08T13:28:31.890Z,39.32
2022-08-08T13:33:42.240Z,38.73
2022-08-08T13:38:46.334Z,38.63
2022-08-08T13:43:51.056Z,38.59
2022-08-08T13:49:12.040Z,38.41
2022-08-08T13:54:22.284Z,37.68
2022-08-08T13:59:35.119Z,36.97
2022-08-08T14:04:54.614Z,36.55
2022-08-08T14:10:11.676Z,36.29
2022-08-08T14:15:31.195Z,36.08
2022-08-08T14:20:56.851Z,35.68
2022-08-08T14:26:04.032Z,35.27
2022-08-08T14:31:23.226Z,35.07
2022-08-08T14:36:38.877Z,34.81
2022-08-08T14:41:45.233Z,34.74
2022-08-08T14:47:00.945Z,34.57
2022-08-08T14:52:08.495Z,34.59
2022-08-08T14:57:11.562Z,34.95
2022-08-08T15:02:25.655Z,35.03
2022-08-08T15:07:39.507Z,35.14
2022-08-08T15:12:49.031Z,35.29
2022-08-08T15:17:51.914Z,35.58
2022-08-08T15:22:54.973Z,35.77
2022-08-08T15:28:32.549Z,35.89
2022-08-08T15:33:38.470Z,36.22
2022-08-08T15:38:50.228Z,36.29
2022-08-08T15:44:00.958Z,36.46
2022-08-08T15:49:04.638Z,36.78
2022-08-08T15:54:07.574Z,36.85
2022-08-08T16:00:25.307Z,37.05
2022-08-08T16:04:54.557Z,37.29
2022-08-08T16:13:11.482Z,37.30
2022-08-08T16:15:25.555Z,37.34
2022-08-08T16:20:35.674Z,37.65
2022-08-08T16:25:46.267Z,37.77
2022-08-08T16:30:57.755Z,38.03
2022-08-08T16:36:01.158Z,38.15
2022-08-08T16:41:04.360Z,38.19
2022-08-08T16:46:37.936Z,38.37
2022-08-08T16:55:19.333Z,38.53
2022-08-08T16:57:03.997Z,38.73
2022-08-08T17:02:44.298Z,39.07
2022-08-08T17:07:46.843Z,39.33
2022-08-08T17:12:52.982Z,39.39
2022-08-08T17:18:02.874Z,39.40
2022-08-08T17:23:17.805Z,39.51
2022-08-08T17:28:34.657Z,39.58
2022-08-08T17:34:47.983Z,39.77
2022-08-08T17:39:22.815Z,39.83
2022-08-08T17:44:26.773Z,40.08
2022-08-08T17:49:42.503Z,40.25
2022-08-08T17:54:46.564Z,40.39
2022-08-08T18:00:01.830Z,40.53
2022-08-08T18:05:08.659Z,40.67
2022-08-08T18:10:17.668Z,40.92
2022-08-08T18:15:21.196Z,41.03
2022-08-08T18:20:36.702Z,41.34
2022-08-08T18:25:47.491Z,41.70
2022-08-08T18:30:50.955Z,42.03
2022-08-08T18:35:53.806Z,42.20
2022-08-08T18:41:06.458Z,42.42
2022-08-08T18:46:57.342Z,42.67
2022-08-08T18:51:52.804Z,42.93
2022-08-08T18:56:56.129Z,43.20
2022-08-08T19:02:26.609Z,43.66
2022-08-08T19:07:29.911Z,44.15
2022-08-08T19:12:36.259Z,44.43
2022-08-08T19:18:31.239Z,44.56
2022-08-08T19:23:08.527Z,44.82
2022-08-08T19:28:18.046Z,45.11
2022-08-08T19:33:24.376Z,45.39
2022-08-08T19:38:27.445Z,45.48
2022-08-08T19:43:30.688Z,45.57
2022-08-08T19:48:35.016Z,45.70
2022-08-08T19:53:38.078Z,45.88
2022-08-08T19:58:55.358Z,46.07
2022-08-08T20:04:00.318Z,46.42
2022-08-08T20:09:09.022Z,46.71
2022-08-08T20:14:34.353Z,46.99
2022-08-08T20:19:42.034Z,47.17
2022-08-08T20:24:45.568Z,47.57
2022-08-08T20:30:00.250Z,47.98
2022-08-08T20:35:06.021Z,48.17
2022-08-08T20:40:16.744Z,48.52
2022-08-08T20:45:57.625Z,48.58
2022-08-08T20:50:43.293Z,48.87
2022-08-08T20:55:51.034Z,49.00
2022-08-08T21:00:54.433Z,49.23
2022-08-08T21:05:59.508Z,49.48
2022-08-08T21:11:03.128Z,49.76
2022-08-08T21:16:20.269Z,49.94
2022-08-08T21:21:41.082Z,50.11
2022-08-08T21:26:44.662Z,50.26
2022-08-08T21:31:58.516Z,50.37
2022-08-08T21:37:11.453Z,50.40
2022-08-08T21:42:19.300Z,50.36
2022-08-08T21:48:05.672Z,50.51
2022-08-08T21:54:27.209Z,50.49
2022-08-08T21:58:18.697Z,50.53
2022-08-08T22:03:28.155Z,50.51
2022-08-08T22:08:36.987Z,50.57
2022-08-08T22:13:50.016Z,50.49
2022-08-08T22:18:54.434Z,50.54
2022-08-08T22:23:58.610Z,50.51
2022-08-08T22:29:14.820Z,50.55
2022-08-08T22:34:27.159Z,50.51
2022-08-08T22:39:39.455Z,50.52
2022-08-08T22:44:49.342Z,50.43
2022-08-08T22:49:54.003Z,50.46
2022-08-08T22:55:06.079Z,50.35
2022-08-08T23:00:13.407Z,50.56
2022-08-08T23:05:16.574Z,50.52
2022-08-08T23:10:21.370Z,50.52
2022-08-08T23:16:39.603Z,50.51
2022-08-08T23:20:54.494Z,50.65
2022-08-08T23:25:58.693Z,50.52
2022-08-08T23:31:02.861Z,50.60
2022-08-08T23:36:08.364Z,50.54
2022-08-08T23:41:23.189Z,50.75
2022-08-08T23:49:04.910Z,50.74
2022-08-08T23:52:06.884Z,50.70
2022-08-08T23:57:25.443Z,50.64
